createdAt,value
2017-09-21T00:00:22.556Z,14.69
2017-09-21T00:01:03.107Z,14.75
2017-09-21T00:01:43.660Z,14.73
2017-09-21T00:02:24.220Z,14.78
2017-09-21T00:03:04.773Z,14.72
2017-09-21T00:03:45.313Z,14.6
2017-09-21T00:04:25.860Z,14.64
2017-09-21T00:05:06.406Z,14.68
2017-09-21T00:05:46.940Z,14.62
2017-09-21T00:06:27.492Z,14.61
2017-09-21T00:07:08.059Z,14.54
2017-09-21T00:07:48.616Z,14.64
2017-09-21T00:08:29.167Z,14.6
2017-09-21T00:09:09.701Z,14.68
2017-09-21T00:09:50.272Z,14.69
2017-09-21T00:10:30.794Z,14.61
2017-09-21T00:11:11.338Z,14.62
2017-09-21T00:11:52.081Z,14.55
2017-09-21T00:12:32.622Z,14.5
2017-09-21T00:13:13.170Z,14.5
2017-09-21T00:13:53.701Z,14.55
2017-09-21T00:14:34.249Z,14.45
2017-09-21T00:15:14.781Z,14.43
2017-09-21T00:15:55.320Z,14.35
2017-09-21T00:16:35.884Z,14.4
2017-09-21T00:17:16.439Z,14.5
2017-09-21T00:17:57.005Z,14.45
2017-09-21T00:18:37.558Z,14.45
2017-09-21T00:19:18.120Z,14.54
2017-09-21T00:19:58.634Z,14.54
2017-09-21T00:20:39.186Z,14.5
2017-09-21T00:21:19.766Z,14.55
2017-09-21T00:22:00.255Z,14.52
2017-09-21T00:22:40.855Z,14.54
2017-09-21T00:23:21.364Z,14.51
2017-09-21T00:24:01.916Z,14.6
2017-09-21T00:24:42.472Z,14.54
2017-09-21T00:25:23.041Z,14.51
2017-09-21T00:26:03.563Z,14.47
2017-09-21T00:26:44.101Z,14.5
2017-09-21T00:27:24.646Z,14.51
2017-09-21T00:28:05.127Z,14.51
2017-09-21T00:28:45.655Z,14.5
2017-09-21T00:29:26.202Z,14.51
2017-09-21T00:30:06.750Z,14.58
2017-09-21T00:30:47.318Z,14.46
2017-09-21T00:31:27.831Z,14.55
2017-09-21T00:32:08.367Z,14.5
2017-09-21T00:32:48.949Z,14.51
2017-09-21T00:33:29.430Z,14.55
2017-09-21T00:34:09.976Z,14.46
2017-09-21T00:34:50.535Z,14.51
2017-09-21T00:35:31.027Z,14.51
2017-09-21T00:36:11.569Z,14.45
2017-09-21T00:36:52.119Z,14.39
2017-09-21T00:37:32.653Z,14.5
2017-09-21T00:38:13.189Z,14.4
2017-09-21T00:38:53.743Z,14.45
2017-09-21T00:39:34.285Z,14.52
2017-09-21T00:40:14.841Z,14.43
2017-09-21T00:40:55.401Z,14.43
2017-09-21T00:41:35.944Z,14.55
2017-09-21T00:42:16.496Z,14.52
2017-09-21T00:42:57.041Z,14.46
2017-09-21T00:43:37.600Z,14.47
2017-09-21T00:44:18.159Z,14.51
2017-09-21T00:44:58.726Z,14.42
2017-09-21T00:45:39.279Z,14.47
2017-09-21T00:46:19.840Z,14.42
2017-09-21T00:47:00.399Z,14.43
2017-09-21T00:47:40.933Z,14.4
2017-09-21T00:48:21.468Z,14.42
2017-09-21T00:49:02.042Z,14.42
2017-09-21T00:49:42.593Z,14.37
2017-09-21T00:50:23.147Z,14.39
2017-09-21T00:51:03.720Z,14.37
2017-09-21T00:51:44.269Z,14.25
2017-09-21T00:52:24.826Z,14.37
2017-09-21T00:53:05.373Z,14.4
2017-09-21T00:53:45.927Z,14.33
2017-09-21T00:54:26.472Z,14.39
2017-09-21T00:55:07.034Z,14.33
2017-09-21T00:55:47.598Z,14.39
2017-09-21T00:56:28.164Z,14.35
2017-09-21T00:57:08.718Z,14.33
2017-09-21T00:57:49.290Z,14.35
2017-09-21T00:58:29.828Z,14.37
2017-09-21T00:59:10.390Z,14.27
2017-09-21T00:59:50.953Z,14.27
2017-09-21T01:00:31.495Z,14.22
2017-09-21T01:01:12.055Z,14.27
2017-09-21T01:01:52.636Z,14.36
2017-09-21T01:02:33.177Z,14.36
2017-09-21T01:03:13.727Z,14.18
2017-09-21T01:03:54.304Z,14.33
2017-09-21T01:04:34.871Z,14.33
2017-09-21T01:05:15.425Z,14.35
2017-09-21T01:05:56.032Z,14.36
2017-09-21T01:06:36.563Z,14.28
2017-09-21T01:07:17.114Z,14.33
2017-09-21T01:07:57.673Z,14.28
2017-09-21T01:08:38.234Z,14.22
2017-09-21T01:09:18.775Z,14.24
2017-09-21T01:09:59.318Z,14.25
2017-09-21T01:10:39.844Z,14.2
2017-09-21T01:11:20.387Z,14.29
2017-09-21T01:12:00.897Z,14.24
2017-09-21T01:12:41.438Z,14.27
2017-09-21T01:13:21.985Z,14.29
2017-09-21T01:14:02.517Z,14.17
2017-09-21T01:14:43.056Z,14.25
2017-09-21T01:15:23.603Z,14.22
2017-09-21T01:16:04.125Z,14.28
2017-09-21T01:16:44.664Z,14.24
2017-09-21T01:17:25.230Z,14.25
2017-09-21T01:18:05.761Z,14.36
2017-09-21T01:18:46.306Z,14.37
2017-09-21T01:19:26.862Z,14.35
2017-09-21T01:20:07.429Z,14.27
2017-09-21T01:20:48.025Z,14.27
2017-09-21T01:21:28.559Z,14.35
2017-09-21T01:22:09.117Z,14.35
2017-09-21T01:22:49.677Z,14.21
2017-09-21T01:23:30.227Z,14.24
2017-09-21T01:24:10.763Z,14.2
2017-09-21T01:24:51.318Z,14.18
2017-09-21T01:25:31.899Z,14.2
2017-09-21T01:26:12.431Z,14.17
2017-09-21T01:26:52.978Z,14.12
2017-09-21T01:27:33.538Z,14.17
2017-09-21T01:28:14.085Z,14.29
2017-09-21T01:28:54.625Z,14.32
2017-09-21T01:29:35.207Z,14.33
2017-09-21T01:30:15.734Z,14.15
2017-09-21T01:30:56.310Z,14.17
2017-09-21T01:31:36.845Z,14.18
2017-09-21T01:32:17.393Z,14.17
2017-09-21T01:32:57.943Z,14.03
2017-09-21T01:33:38.495Z,14.12
2017-09-21T01:34:19.052Z,14.17
2017-09-21T01:34:59.590Z,14.06
2017-09-21T01:35:40.145Z,14.09
2017-09-21T01:36:20.687Z,14.09
2017-09-21T01:37:01.245Z,14.03
2017-09-21T01:37:41.836Z,14.14
2017-09-21T01:38:22.397Z,14.2
2017-09-21T01:39:02.949Z,14.22
2017-09-21T01:39:43.459Z,14.15
2017-09-21T01:40:23.995Z,14.17
2017-09-21T01:41:04.549Z,14.14
2017-09-21T01:41:45.098Z,14.17
2017-09-21T01:42:25.658Z,14.09
2017-09-21T01:43:06.221Z,14.21
2017-09-21T01:43:46.772Z,14.21
2017-09-21T01:44:27.305Z,14.29
2017-09-21T01:45:07.865Z,14.18
2017-09-21T01:45:48.422Z,14.18
2017-09-21T01:46:28.970Z,14.17
2017-09-21T01:47:09.519Z,14.2
2017-09-21T01:47:50.071Z,14.12
2017-09-21T01:48:30.615Z,14.03
2017-09-21T01:49:11.171Z,14.09
2017-09-21T01:49:51.722Z,14.07
2017-09-21T01:50:32.276Z,14.14
2017-09-21T01:51:12.830Z,14
2017-09-21T01:51:53.387Z,14.02
2017-09-21T01:52:33.948Z,14.03
2017-09-21T01:53:14.487Z,13.91
2017-09-21T01:53:55.034Z,14.07
2017-09-21T01:54:35.588Z,14.06
2017-09-21T01:55:16.152Z,14.1
2017-09-21T01:55:56.687Z,14.03
2017-09-21T01:56:37.221Z,14.06
2017-09-21T01:57:17.783Z,14.1
2017-09-21T01:57:58.322Z,14.14
2017-09-21T01:58:38.885Z,14.03
2017-09-21T01:59:19.437Z,14.04
2017-09-21T01:59:59.981Z,14.17
2017-09-21T02:00:40.529Z,14.1
2017-09-21T02:01:21.068Z,14.17
2017-09-21T02:02:01.625Z,14.14
2017-09-21T02:02:42.154Z,14.03
2017-09-21T02:03:22.739Z,14.15
2017-09-21T02:04:03.279Z,14.2
2017-09-21T02:04:43.831Z,14.07
2017-09-21T02:05:24.382Z,14.12
2017-09-21T02:06:04.926Z,14.12
2017-09-21T02:06:45.482Z,14.17
2017-09-21T02:07:26.038Z,14.09
2017-09-21T02:08:06.580Z,14.1
2017-09-21T02:08:47.135Z,14.04
2017-09-21T02:09:27.686Z,14.15
2017-09-21T02:10:08.232Z,14.15
2017-09-21T02:10:48.786Z,14.09
2017-09-21T02:11:29.344Z,14.09
2017-09-21T02:12:09.904Z,14.02
2017-09-21T02:12:50.468Z,14.07
2017-09-21T02:13:31.022Z,14
2017-09-21T02:14:11.569Z,14.09
2017-09-21T02:14:52.132Z,14.06
2017-09-21T02:15:32.748Z,13.99
2017-09-21T02:16:13.299Z,14.03
2017-09-21T02:16:53.866Z,14
2017-09-21T02:17:34.424Z,14.04
2017-09-21T02:18:14.972Z,14
2017-09-21T02:18:55.528Z,14.07
2017-09-21T02:19:36.085Z,14.14
2017-09-21T02:20:16.606Z,14.07
2017-09-21T02:20:57.173Z,14.06
2017-09-21T02:21:37.743Z,13.96
2017-09-21T02:22:18.291Z,14.03
2017-09-21T02:22:58.860Z,13.99
2017-09-21T02:23:39.408Z,13.95
2017-09-21T02:24:19.965Z,13.97
2017-09-21T02:25:00.525Z,13.99
2017-09-21T02:25:41.085Z,14.03
2017-09-21T02:26:21.654Z,13.88
2017-09-21T02:27:02.217Z,13.97
2017-09-21T02:27:42.783Z,13.84
2017-09-21T02:28:23.330Z,13.84
2017-09-21T02:29:03.900Z,13.89
2017-09-21T02:29:44.455Z,13.91
2017-09-21T02:30:24.993Z,13.87
2017-09-21T02:31:05.533Z,13.81
2017-09-21T02:31:46.070Z,13.78
2017-09-21T02:32:26.628Z,13.87
2017-09-21T02:33:07.181Z,13.87
2017-09-21T02:33:47.735Z,13.85
2017-09-21T02:36:02.050Z,13.88
2017-09-21T02:36:42.619Z,13.82
2017-09-21T02:37:23.173Z,13.84
2017-09-21T02:38:03.731Z,13.88
2017-09-21T02:38:44.278Z,13.87
2017-09-21T02:39:24.844Z,13.84
2017-09-21T02:40:05.405Z,13.84
2017-09-21T02:40:45.957Z,13.77
2017-09-21T02:41:26.503Z,13.79
2017-09-21T02:42:07.058Z,13.82
2017-09-21T02:42:47.618Z,13.71
2017-09-21T02:43:28.175Z,13.91
2017-09-21T02:44:08.728Z,13.88
2017-09-21T02:44:49.277Z,13.89
2017-09-21T02:45:29.818Z,13.91
2017-09-21T02:46:10.365Z,13.81
2017-09-21T02:46:50.933Z,13.77
2017-09-21T02:47:31.460Z,13.79
2017-09-21T02:48:12.008Z,13.79
2017-09-21T02:48:52.571Z,13.81
2017-09-21T02:49:33.128Z,13.67
2017-09-21T02:50:13.684Z,13.77
2017-09-21T02:50:54.240Z,13.7
2017-09-21T02:51:34.788Z,13.78
2017-09-21T02:52:15.327Z,13.82
2017-09-21T02:52:55.877Z,13.63
2017-09-21T02:53:36.440Z,13.62
2017-09-21T02:54:16.963Z,13.71
2017-09-21T02:54:57.510Z,13.64
2017-09-21T02:55:38.061Z,13.67
2017-09-21T02:56:18.626Z,13.64
2017-09-21T02:56:59.174Z,13.63
2017-09-21T02:57:39.725Z,13.63
2017-09-21T02:58:20.280Z,13.66
2017-09-21T02:59:00.831Z,13.75
2017-09-21T02:59:41.393Z,13.79
2017-09-21T03:00:21.936Z,13.82
2017-09-21T03:01:02.489Z,13.85
2017-09-21T03:01:43.051Z,13.77
2017-09-21T03:02:23.584Z,13.89
2017-09-21T03:03:04.137Z,13.77
2017-09-21T03:03:44.700Z,13.73
2017-09-21T03:04:25.235Z,13.69
2017-09-21T03:05:05.804Z,13.71
2017-09-21T03:05:46.387Z,13.69
2017-09-21T03:06:26.935Z,13.66
2017-09-21T03:07:07.508Z,13.69
2017-09-21T03:07:48.037Z,13.57
2017-09-21T03:08:28.604Z,13.62
2017-09-21T03:09:09.141Z,13.69
2017-09-21T03:09:49.706Z,13.62
2017-09-21T03:10:30.293Z,13.69
2017-09-21T03:11:10.842Z,13.62
2017-09-21T03:11:51.410Z,13.62
2017-09-21T03:12:31.957Z,13.63
2017-09-21T03:13:12.503Z,13.66
2017-09-21T03:13:53.073Z,13.79
2017-09-21T03:14:33.632Z,13.7
2017-09-21T03:15:14.177Z,13.73
2017-09-21T03:15:54.733Z,13.79
2017-09-21T03:16:35.285Z,13.71
2017-09-21T03:17:15.837Z,13.66
2017-09-21T03:17:56.377Z,13.69
2017-09-21T03:18:36.933Z,13.69
2017-09-21T03:19:17.484Z,13.67
2017-09-21T03:19:58.045Z,13.67
2017-09-21T03:20:38.587Z,13.71
2017-09-21T03:21:19.152Z,13.6
2017-09-21T03:21:59.713Z,13.62
2017-09-21T03:22:40.273Z,13.62
2017-09-21T03:23:20.803Z,13.6
2017-09-21T03:24:01.360Z,13.57
2017-09-21T03:24:41.942Z,13.6
2017-09-21T03:25:22.517Z,13.77
2017-09-21T03:26:03.058Z,13.6
2017-09-21T03:26:43.580Z,13.67
2017-09-21T03:27:24.112Z,13.62
2017-09-21T03:28:04.662Z,13.6
2017-09-21T03:28:45.210Z,13.69
2017-09-21T03:29:25.781Z,13.67
2017-09-21T03:30:06.287Z,13.69
2017-09-21T03:30:46.847Z,13.71
2017-09-21T03:31:27.377Z,13.62
2017-09-21T03:32:07.919Z,13.69
2017-09-21T03:32:48.472Z,13.69
2017-09-21T03:33:29.016Z,13.62
2017-09-21T03:34:09.556Z,13.59
2017-09-21T03:34:50.097Z,13.66
2017-09-21T03:35:30.630Z,13.67
2017-09-21T03:36:11.196Z,13.63
2017-09-21T03:36:51.747Z,13.63
2017-09-21T03:37:32.314Z,13.57
2017-09-21T03:38:12.855Z,13.54
2017-09-21T03:38:53.397Z,13.49
2017-09-21T03:39:33.951Z,13.57
2017-09-21T03:40:14.499Z,13.62
2017-09-21T03:40:55.067Z,13.59
2017-09-21T03:41:35.598Z,13.59
2017-09-21T03:42:16.133Z,13.57
2017-09-21T03:42:56.679Z,13.57
2017-09-21T03:43:37.259Z,13.6
2017-09-21T03:44:17.804Z,13.6
2017-09-21T03:44:58.345Z,13.59
2017-09-21T03:45:38.878Z,13.51
2017-09-21T03:46:19.435Z,13.57
2017-09-21T03:46:59.994Z,13.63
2017-09-21T03:47:40.528Z,13.55
2017-09-21T03:48:21.068Z,13.55
2017-09-21T03:49:01.623Z,13.59
2017-09-21T03:49:42.193Z,13.55
2017-09-21T03:50:22.752Z,13.52
2017-09-21T03:51:03.297Z,13.57
2017-09-21T03:51:43.826Z,13.57
2017-09-21T03:52:24.410Z,13.55
2017-09-21T03:53:04.968Z,13.63
2017-09-21T03:53:45.510Z,13.45
2017-09-21T03:54:26.085Z,13.52
2017-09-21T03:55:06.630Z,13.45
2017-09-21T03:55:47.198Z,13.44
2017-09-21T03:56:27.756Z,13.57
2017-09-21T03:57:08.307Z,13.51
2017-09-21T03:57:48.867Z,13.57
2017-09-21T03:58:29.420Z,13.54
2017-09-21T03:59:09.972Z,13.54
2017-09-21T03:59:50.526Z,13.54
2017-09-21T04:00:31.072Z,13.55
2017-09-21T04:01:11.626Z,13.55
2017-09-21T04:01:52.180Z,13.54
2017-09-21T04:02:32.710Z,13.55
2017-09-21T04:03:13.218Z,13.55
2017-09-21T04:03:53.785Z,13.49
2017-09-21T04:04:34.357Z,13.45
2017-09-21T04:05:14.907Z,13.57
2017-09-21T04:05:55.469Z,13.57
2017-09-21T04:06:36.003Z,13.55
2017-09-21T04:07:16.561Z,13.54
2017-09-21T04:07:57.125Z,13.55
2017-09-21T04:08:37.673Z,13.55
2017-09-21T04:09:18.246Z,13.49
2017-09-21T04:09:58.797Z,13.44
2017-09-21T04:10:39.340Z,13.44
2017-09-21T04:11:19.924Z,13.48
2017-09-21T04:12:00.476Z,13.41
2017-09-21T04:12:41.015Z,13.51
2017-09-21T04:13:21.562Z,13.44
2017-09-21T04:14:02.111Z,13.44
2017-09-21T04:14:42.668Z,13.36
2017-09-21T04:15:23.197Z,13.36
2017-09-21T04:16:03.742Z,13.39
2017-09-21T04:16:44.305Z,13.36
2017-09-21T04:17:24.862Z,13.38
2017-09-21T04:18:05.404Z,13.33
2017-09-21T04:18:45.958Z,13.39
2017-09-21T04:19:26.504Z,13.38
2017-09-21T04:20:07.066Z,13.33
2017-09-21T04:20:47.613Z,13.39
2017-09-21T04:21:28.151Z,13.38
2017-09-21T04:22:08.721Z,13.38
2017-09-21T04:22:49.261Z,13.33
2017-09-21T04:23:29.786Z,13.29
2017-09-21T04:24:10.337Z,13.32
2017-09-21T04:24:50.881Z,13.38
2017-09-21T04:25:31.439Z,13.3
2017-09-21T04:26:11.971Z,13.32
2017-09-21T04:26:52.516Z,13.33
2017-09-21T04:27:33.073Z,13.36
2017-09-21T04:28:13.615Z,13.45
2017-09-21T04:28:54.148Z,13.42
2017-09-21T04:29:34.743Z,13.28
2017-09-21T04:30:15.254Z,13.32
2017-09-21T04:30:55.788Z,13.19
2017-09-21T04:31:36.329Z,13.28
2017-09-21T04:32:16.862Z,13.38
2017-09-21T04:32:57.442Z,13.33
2017-09-21T04:33:37.986Z,13.41
2017-09-21T04:34:18.509Z,13.33
2017-09-21T04:34:59.079Z,13.22
2017-09-21T04:35:39.653Z,13.25
2017-09-21T04:36:20.187Z,13.26
2017-09-21T04:37:00.719Z,13.33
2017-09-21T04:37:41.275Z,13.36
2017-09-21T04:38:21.801Z,13.12
2017-09-21T04:39:02.369Z,13.17
2017-09-21T04:39:42.906Z,13.15
2017-09-21T04:40:23.421Z,13.12
2017-09-21T04:41:03.975Z,13.19
2017-09-21T04:41:44.518Z,13.32
2017-09-21T04:42:25.049Z,13.3
2017-09-21T04:43:05.603Z,13.28
2017-09-21T04:43:46.118Z,13.33
2017-09-21T04:44:26.628Z,13.32
2017-09-21T04:45:07.192Z,13.26
2017-09-21T04:45:47.737Z,13.3
2017-09-21T04:46:28.265Z,13.29
2017-09-21T04:47:08.807Z,13.41
2017-09-21T04:47:49.336Z,13.33
2017-09-21T04:48:29.876Z,13.33
2017-09-21T04:49:10.427Z,13.15
2017-09-21T04:49:50.982Z,13.2
2017-09-21T04:50:31.529Z,13.14
2017-09-21T04:51:12.079Z,13.26
2017-09-21T04:51:52.605Z,13.26
2017-09-21T04:52:33.137Z,13.32
2017-09-21T04:53:13.666Z,13.3
2017-09-21T04:53:54.232Z,13.2
2017-09-21T04:54:34.785Z,13.08
2017-09-21T04:55:15.313Z,13.23
2017-09-21T04:55:55.856Z,13.3
2017-09-21T04:56:36.398Z,13.22
2017-09-21T04:57:16.973Z,13.33
2017-09-21T04:57:57.522Z,13.14
2017-09-21T04:58:38.044Z,13.23
2017-09-21T04:59:18.585Z,13.17
2017-09-21T04:59:59.140Z,13.19
2017-09-21T05:00:39.682Z,13.14
2017-09-21T05:01:20.246Z,13.15
2017-09-21T05:02:00.805Z,13.07
2017-09-21T05:02:41.364Z,13.07
2017-09-21T05:03:21.915Z,13.1
2017-09-21T05:04:02.455Z,13.08
2017-09-21T05:04:43.023Z,13.11
2017-09-21T05:05:23.582Z,13.1
2017-09-21T05:06:04.141Z,13.12
2017-09-21T05:06:44.671Z,13.17
2017-09-21T05:07:25.231Z,13.15
2017-09-21T05:08:05.779Z,13.04
2017-09-21T05:08:46.343Z,13.11
2017-09-21T05:09:26.866Z,13.11
2017-09-21T05:10:07.404Z,13.19
2017-09-21T05:10:47.934Z,13.1
2017-09-21T05:11:28.482Z,13.08
2017-09-21T05:12:09.041Z,13.15
2017-09-21T05:12:49.604Z,13.1
2017-09-21T05:13:30.156Z,13.12
2017-09-21T05:14:10.717Z,13.14
2017-09-21T05:14:51.221Z,13.15
2017-09-21T05:15:31.769Z,13.03
2017-09-21T05:16:12.315Z,13.1
2017-09-21T05:16:52.933Z,13.14
2017-09-21T05:17:33.476Z,13.23
2017-09-21T05:18:14.030Z,13.39
2017-09-21T05:18:54.593Z,13.28
2017-09-21T05:19:35.112Z,13.38
2017-09-21T05:20:15.673Z,13.41
2017-09-21T05:20:56.216Z,13.52
2017-09-21T05:21:36.758Z,13.49
2017-09-21T05:22:17.314Z,13.55
2017-09-21T05:22:57.861Z,13.55
2017-09-21T05:23:38.438Z,13.54
2017-09-21T05:24:19.002Z,13.62
2017-09-21T05:24:59.568Z,13.6
2017-09-21T05:25:40.131Z,13.59
2017-09-21T05:26:20.689Z,13.62
2017-09-21T05:27:01.247Z,13.6
2017-09-21T05:27:41.761Z,13.67
2017-09-21T05:28:22.323Z,13.71
2017-09-21T05:29:02.873Z,13.77
2017-09-21T05:29:43.477Z,13.78
2017-09-21T05:30:24.036Z,13.85
2017-09-21T05:31:04.596Z,13.81
2017-09-21T05:31:45.150Z,13.87
2017-09-21T05:32:25.691Z,13.95
2017-09-21T05:33:06.250Z,13.89
2017-09-21T05:33:46.800Z,13.92
2017-09-21T05:34:27.354Z,13.84
2017-09-21T05:35:07.906Z,13.87
2017-09-21T05:35:48.466Z,13.96
2017-09-21T05:36:29.009Z,14.06
2017-09-21T05:37:09.578Z,13.97
2017-09-21T05:37:50.112Z,14.07
2017-09-21T05:38:30.650Z,14.24
2017-09-21T05:39:11.173Z,14.21
2017-09-21T05:39:51.701Z,14.24
2017-09-21T05:40:32.225Z,14.24
2017-09-21T05:41:12.777Z,14.22
2017-09-21T05:41:53.305Z,14.21
2017-09-21T05:42:33.833Z,14.2
2017-09-21T05:43:14.390Z,14.14
2017-09-21T05:43:54.910Z,14.12
2017-09-21T05:44:35.433Z,14.17
2017-09-21T05:45:15.993Z,14.18
2017-09-21T05:45:56.546Z,14.21
2017-09-21T05:46:37.087Z,14.32
2017-09-21T05:47:17.603Z,14.27
2017-09-21T05:47:58.147Z,14.35
2017-09-21T05:48:38.677Z,14.28
2017-09-21T05:49:19.209Z,14.29
2017-09-21T05:49:59.717Z,14.28
2017-09-21T05:50:40.220Z,14.25
2017-09-21T05:51:20.763Z,14.4
2017-09-21T05:52:01.286Z,14.36
2017-09-21T05:52:41.836Z,14.4
2017-09-21T05:53:22.402Z,14.36
2017-09-21T05:54:02.917Z,14.42
2017-09-21T05:54:43.512Z,14.51
2017-09-21T05:55:24.124Z,14.47
2017-09-21T05:56:04.574Z,14.54
2017-09-21T05:56:45.120Z,14.52
2017-09-21T05:57:25.680Z,14.52
2017-09-21T05:58:06.244Z,14.54
2017-09-21T05:58:46.799Z,14.58
2017-09-21T05:59:27.355Z,14.64
2017-09-21T06:00:07.911Z,14.62
2017-09-21T06:00:48.471Z,14.61
2017-09-21T06:01:29.025Z,14.65
2017-09-21T06:02:09.583Z,14.72
2017-09-21T06:02:50.141Z,14.69
2017-09-21T06:03:30.768Z,14.77
2017-09-21T06:04:11.265Z,14.65
2017-09-21T06:04:51.832Z,14.72
2017-09-21T06:05:32.392Z,14.73
2017-09-21T06:06:12.944Z,14.8
2017-09-21T06:06:53.489Z,14.81
2017-09-21T06:07:34.055Z,14.77
2017-09-21T06:08:14.634Z,14.78
2017-09-21T06:08:55.217Z,14.81
2017-09-21T06:09:35.781Z,14.86
2017-09-21T06:10:16.350Z,14.83
2017-09-21T06:10:56.906Z,14.89
2017-09-21T06:11:37.483Z,15.01
2017-09-21T06:12:18.040Z,14.98
2017-09-21T06:12:58.581Z,14.95
2017-09-21T06:13:39.138Z,15.03
2017-09-21T06:14:19.676Z,15.03
2017-09-21T06:15:00.237Z,15.07
2017-09-21T06:15:40.793Z,15.09
2017-09-21T06:16:21.327Z,15.27
2017-09-21T06:17:01.871Z,15.2
2017-09-21T06:17:42.478Z,15.2
2017-09-21T06:18:23.031Z,15.19
2017-09-21T06:19:03.596Z,15.06
2017-09-21T06:19:44.165Z,15.06
2017-09-21T06:20:24.682Z,14.92
2017-09-21T06:21:05.255Z,15.06
2017-09-21T06:21:45.775Z,15.01
2017-09-21T06:22:26.297Z,14.89
2017-09-21T06:23:06.855Z,14.92
2017-09-21T06:23:47.426Z,14.89
2017-09-21T06:24:27.958Z,15.16
2017-09-21T06:25:08.517Z,15.28
2017-09-21T06:25:49.096Z,15.2
2017-09-21T06:26:29.670Z,15.19
2017-09-21T06:27:10.236Z,15.25
2017-09-21T06:27:50.778Z,15.29
2017-09-21T06:28:31.377Z,15.36
2017-09-21T06:29:11.948Z,15.5
2017-09-21T06:29:52.498Z,15.47
2017-09-21T06:30:33.029Z,15.49
2017-09-21T06:31:13.608Z,15.5
2017-09-21T06:31:54.169Z,15.51
2017-09-21T06:32:34.702Z,15.6
2017-09-21T06:33:15.275Z,15.5
2017-09-21T06:33:55.832Z,15.6
2017-09-21T06:34:36.354Z,15.57
2017-09-21T06:35:16.927Z,15.65
2017-09-21T06:35:57.477Z,15.53
2017-09-21T06:36:38.040Z,15.57
2017-09-21T06:37:18.561Z,15.51
2017-09-21T06:37:59.072Z,15.51
2017-09-21T06:38:39.613Z,15.59
2017-09-21T06:39:20.249Z,15.6
2017-09-21T06:40:00.748Z,15.6
2017-09-21T06:40:41.261Z,15.53
2017-09-21T06:41:21.877Z,15.59
2017-09-21T06:42:02.366Z,15.59
2017-09-21T06:42:42.866Z,15.46
2017-09-21T06:43:23.445Z,15.39
2017-09-21T06:44:03.984Z,15.51
2017-09-21T06:44:44.532Z,15.51
2017-09-21T06:45:25.084Z,15.57
2017-09-21T06:46:05.643Z,15.57
2017-09-21T06:46:46.188Z,15.62
2017-09-21T06:47:26.749Z,15.72
2017-09-21T06:48:07.279Z,15.68
2017-09-21T06:48:47.857Z,15.65
2017-09-21T06:49:28.395Z,15.6
2017-09-21T06:50:08.949Z,15.76
2017-09-21T06:50:49.491Z,15.78
2017-09-21T06:51:30.043Z,15.75
2017-09-21T06:52:10.609Z,15.57
2017-09-21T06:52:51.193Z,15.71
2017-09-21T06:53:31.747Z,15.8
2017-09-21T06:54:12.292Z,15.94
2017-09-21T06:54:52.876Z,15.97
2017-09-21T06:55:33.384Z,16.02
2017-09-21T06:56:13.959Z,16.11
2017-09-21T06:56:54.527Z,16.08
2017-09-21T06:57:35.674Z,16.07
2017-09-21T06:58:16.267Z,16.14
2017-09-21T06:58:56.836Z,16.25
2017-09-21T06:59:37.555Z,16.3
2017-09-21T07:00:17.936Z,16.31
2017-09-21T07:00:58.491Z,16.38
2017-09-21T07:01:39.038Z,16.11
2017-09-21T07:02:19.569Z,16.27
2017-09-21T07:03:00.120Z,16.3
2017-09-21T07:03:40.679Z,16.43
2017-09-21T07:04:21.239Z,16.46
2017-09-21T07:05:01.791Z,16.61
2017-09-21T07:05:42.346Z,16.71
2017-09-21T07:06:22.910Z,16.82
2017-09-21T07:07:03.434Z,16.75
2017-09-21T07:07:43.976Z,16.66
2017-09-21T07:08:24.617Z,16.76
2017-09-21T07:09:05.155Z,16.81
2017-09-21T07:09:45.728Z,16.7
2017-09-21T07:10:26.274Z,16.58
2017-09-21T07:11:06.837Z,16.61
2017-09-21T07:11:47.407Z,16.63
2017-09-21T07:12:27.954Z,16.73
2017-09-21T07:13:08.603Z,16.79
2017-09-21T07:13:49.377Z,16.73
2017-09-21T07:14:29.895Z,16.83
2017-09-21T07:15:10.443Z,16.71
2017-09-21T07:15:51.020Z,16.78
2017-09-21T07:16:31.515Z,16.79
2017-09-21T07:17:12.080Z,16.86
2017-09-21T07:17:52.630Z,16.89
2017-09-21T07:18:33.142Z,16.89
2017-09-21T07:19:13.669Z,16.82
2017-09-21T07:19:54.250Z,16.78
2017-09-21T07:20:34.820Z,16.82
2017-09-21T07:21:15.373Z,16.83
2017-09-21T07:21:55.879Z,17
2017-09-21T07:22:36.403Z,16.97
2017-09-21T07:23:16.979Z,16.85
2017-09-21T07:23:57.566Z,16.96
2017-09-21T07:24:38.149Z,16.94
2017-09-21T07:25:18.689Z,16.96
2017-09-21T07:25:59.263Z,16.94
2017-09-21T07:26:39.807Z,17.01
2017-09-21T07:27:20.339Z,16.93
2017-09-21T07:28:00.916Z,16.79
2017-09-21T07:28:41.456Z,16.86
2017-09-21T07:29:21.990Z,16.79
2017-09-21T07:30:02.573Z,16.79
2017-09-21T07:30:43.076Z,16.85
2017-09-21T07:31:23.633Z,16.78
2017-09-21T07:32:04.202Z,16.81
2017-09-21T07:32:44.753Z,16.81
2017-09-21T07:33:25.322Z,16.78
2017-09-21T07:34:05.884Z,16.83
2017-09-21T07:34:46.480Z,16.93
2017-09-21T07:35:27.033Z,16.94
2017-09-21T07:36:07.575Z,16.91
2017-09-21T07:36:48.136Z,16.76
2017-09-21T07:37:28.700Z,16.75
2017-09-21T07:38:09.285Z,16.82
2017-09-21T07:38:49.813Z,16.88
2017-09-21T07:39:30.339Z,16.85
2017-09-21T07:40:10.891Z,16.94
2017-09-21T07:40:51.425Z,17.01
2017-09-21T07:41:31.969Z,16.85
2017-09-21T07:42:12.487Z,16.82
2017-09-21T07:42:53.048Z,16.81
2017-09-21T07:43:33.594Z,16.85
2017-09-21T07:44:14.119Z,16.94
2017-09-21T07:44:54.671Z,17.03
2017-09-21T07:45:35.177Z,17.03
2017-09-21T07:46:15.736Z,16.98
2017-09-21T07:46:56.257Z,17.07
2017-09-21T07:47:36.798Z,16.97
2017-09-21T07:48:17.394Z,16.85
2017-09-21T07:48:58.045Z,16.89
2017-09-21T07:49:38.559Z,16.97
2017-09-21T07:50:19.120Z,16.97
2017-09-21T07:50:59.703Z,17.01
2017-09-21T07:51:40.371Z,16.97
2017-09-21T07:52:20.847Z,16.81
2017-09-21T07:53:01.468Z,16.71
2017-09-21T07:53:42.016Z,16.7
2017-09-21T07:54:22.563Z,16.78
2017-09-21T07:55:03.111Z,16.82
2017-09-21T07:55:43.700Z,16.97
2017-09-21T07:56:24.280Z,16.94
2017-09-21T07:57:04.790Z,17
2017-09-21T07:57:45.313Z,16.86
2017-09-21T07:58:25.896Z,16.91
2017-09-21T07:59:06.475Z,17.01
2017-09-21T07:59:46.999Z,17.22
2017-09-21T08:00:27.590Z,17.22
2017-09-21T08:01:08.153Z,17.11
2017-09-21T08:01:48.721Z,17.19
2017-09-21T08:02:29.297Z,17.22
2017-09-21T08:03:09.804Z,17.12
2017-09-21T08:03:50.358Z,17.08
2017-09-21T08:04:30.901Z,17.19
2017-09-21T08:05:11.449Z,17.22
2017-09-21T08:05:51.987Z,17.23
2017-09-21T08:06:32.544Z,17.21
2017-09-21T08:07:13.093Z,17.26
2017-09-21T08:07:53.644Z,17.31
2017-09-21T08:08:34.155Z,17.48
2017-09-21T08:09:14.693Z,17.43
2017-09-21T08:09:55.260Z,17.37
2017-09-21T08:10:35.820Z,17.22
2017-09-21T08:11:16.406Z,17.23
2017-09-21T08:11:56.914Z,17.26
2017-09-21T08:12:37.436Z,17.3
2017-09-21T08:13:17.993Z,17.4
2017-09-21T08:13:58.517Z,17.46
2017-09-21T08:14:39.111Z,17.37
2017-09-21T08:15:19.605Z,17.41
2017-09-21T08:16:00.165Z,17.38
2017-09-21T08:16:40.791Z,17.37
2017-09-21T08:17:21.297Z,17.36
2017-09-21T08:18:01.877Z,17.19
2017-09-21T08:18:42.436Z,17.21
2017-09-21T08:19:22.950Z,17.21
2017-09-21T08:20:03.501Z,17.3
2017-09-21T08:20:44.077Z,17.36
2017-09-21T08:21:24.640Z,17.41
2017-09-21T08:22:05.348Z,17.46
2017-09-21T08:22:45.877Z,17.41
2017-09-21T08:23:26.442Z,17.41
2017-09-21T08:24:07.027Z,17.46
2017-09-21T08:24:47.605Z,17.44
2017-09-21T08:25:28.154Z,17.44
2017-09-21T08:26:08.711Z,17.43
2017-09-21T08:26:49.260Z,17.31
2017-09-21T08:27:29.798Z,17.28
2017-09-21T08:28:10.359Z,17.23
2017-09-21T08:28:50.967Z,17.31
2017-09-21T08:29:31.518Z,17.23
2017-09-21T08:30:12.029Z,17.14
2017-09-21T08:30:52.580Z,17.12
2017-09-21T08:31:33.138Z,17.11
2017-09-21T08:32:13.662Z,17.16
2017-09-21T08:32:54.176Z,17.12
2017-09-21T08:33:34.751Z,17.12
2017-09-21T08:34:15.299Z,17.16
2017-09-21T08:34:55.800Z,17.22
2017-09-21T08:35:36.327Z,17.46
2017-09-21T08:36:16.893Z,17.38
2017-09-21T08:36:57.415Z,17.48
2017-09-21T08:37:37.941Z,17.37
2017-09-21T08:38:18.595Z,17.43
2017-09-21T08:38:59.138Z,17.36
2017-09-21T08:39:39.679Z,17.55
2017-09-21T08:40:20.225Z,17.54
2017-09-21T08:41:00.762Z,17.55
2017-09-21T08:41:41.275Z,17.62
2017-09-21T08:42:21.828Z,17.58
2017-09-21T08:43:02.357Z,17.59
2017-09-21T08:43:42.909Z,17.56
2017-09-21T08:44:23.431Z,17.56
2017-09-21T08:45:03.979Z,17.55
2017-09-21T08:45:44.526Z,17.46